createdAt,value
2018-11-20T00:01:15.717Z,97205.53
2018-11-20T00:04:13.434Z,97197.76
2018-11-20T00:07:03.880Z,97198.11
2018-11-20T00:09:54.992Z,97203.23
2018-11-20T00:12:55.425Z,97209.80
2018-11-20T00:16:02.104Z,97196.11
2018-11-20T00:18:53.620Z,97187.30
2018-11-20T00:21:43.608Z,97175.58
2018-11-20T00:24:35.438Z,97167.36
2018-11-20T00:27:26.035Z,97161.64
2018-11-20T00:30:16.740Z,97162.70
2018-11-20T00:33:14.102Z,97160.53
2018-11-20T00:35:55.995Z,97151.80
2018-11-20T00:38:52.857Z,97136.45
2018-11-20T00:41:59.827Z,97140.28
2018-11-20T00:44:57.905Z,97129.64
2018-11-20T00:47:46.216Z,97142.79
2018-11-20T00:50:29.794Z,97147.89
2018-11-20T00:53:18.645Z,97149.16
2018-11-20T00:57:11.300Z,97152.16
2018-11-20T01:00:11.629Z,97144.69
2018-11-20T01:02:58.095Z,97154.11
2018-11-20T01:05:39.283Z,97139.23
2018-11-20T01:08:43.601Z,97147.88
2018-11-20T01:11:33.005Z,97132.03
2018-11-20T01:14:25.067Z,97146.83
2018-11-20T01:17:23.116Z,97161.40
2018-11-20T01:20:13.718Z,97168.05
2018-11-20T01:23:00.738Z,97162.48
2018-11-20T01:25:50.822Z,97177.79
2018-11-20T01:28:40.912Z,97160.50
2018-11-20T01:31:32.510Z,97170.54
2018-11-20T01:34:22.215Z,97167.46
2018-11-20T01:37:22.956Z,97171.34
2018-11-20T01:40:14.342Z,97163.31
2018-11-20T01:43:08.439Z,97151.83
2018-11-20T01:45:58.821Z,97144.30
2018-11-20T01:48:50.891Z,97128.86
2018-11-20T01:51:36.670Z,97129.94
2018-11-20T01:54:40.177Z,97117.36
2018-11-20T01:57:30.471Z,97117.88
2018-11-20T02:00:22.300Z,97119.94
2018-11-20T02:03:11.874Z,97105.47
2018-11-20T02:06:03.397Z,97100.25
2018-11-20T02:09:13.864Z,97089.86
2018-11-20T02:12:08.226Z,97072.45
2018-11-20T02:15:00.089Z,97066.45
2018-11-20T02:18:09.013Z,97062.05
2018-11-20T02:20:58.589Z,97068.34
2018-11-20T02:23:52.773Z,97069.73
2018-11-20T02:26:36.688Z,97060.25
2018-11-20T02:29:43.294Z,97057.20
2018-11-20T02:32:35.635Z,97054.88
2018-11-20T02:35:20.500Z,97059.59
2018-11-20T02:38:11.408Z,97062.47
2018-11-20T02:41:09.036Z,97059.50
2018-11-20T02:44:00.968Z,97058.98
2018-11-20T02:46:51.310Z,97041.30
2018-11-20T02:49:41.284Z,97052.78
2018-11-20T02:52:28.473Z,97047.58
2018-11-20T02:55:18.187Z,97040.51
2018-11-20T02:58:21.895Z,97038.75
2018-11-20T03:01:04.466Z,97037.42
2018-11-20T03:03:54.420Z,97030.58
2018-11-20T03:06:44.275Z,97031.90
2018-11-20T03:09:24.293Z,97026.50
2018-11-20T03:12:14.521Z,97029.24
2018-11-20T03:15:13.313Z,97030.91
2018-11-20T03:18:20.092Z,97033.22
2018-11-20T03:21:09.667Z,97028.27
2018-11-20T03:23:59.551Z,97026.47
2018-11-20T03:26:47.715Z,97021.05
2018-11-20T03:30:35.751Z,97022.94
2018-11-20T03:33:18.663Z,97028.56
2018-11-20T03:36:08.596Z,97025.98
2018-11-20T03:38:59.354Z,97023.83
2018-11-20T03:41:52.886Z,97023.76
2018-11-20T03:44:56.657Z,97014.48
2018-11-20T03:47:48.174Z,97009.00
2018-11-20T03:50:37.933Z,97004.39
2018-11-20T03:53:27.814Z,97007.49
2018-11-20T03:56:27.943Z,97010.91
2018-11-20T03:59:18.135Z,97013.53
2018-11-20T04:02:12.464Z,97004.61
2018-11-20T04:05:03.602Z,96997.56
2018-11-20T04:07:57.406Z,97006.04
2018-11-20T04:10:52.310Z,96994.58
2018-11-20T04:13:46.725Z,96998.05
2018-11-20T04:16:49.802Z,96996.47
2018-11-20T04:19:40.084Z,96992.20
2018-11-20T04:22:34.758Z,96988.67
2018-11-20T04:25:38.593Z,96986.51
2018-11-20T04:28:32.777Z,96985.59
2018-11-20T04:32:09.845Z,96982.48
2018-11-20T04:35:01.493Z,96979.39
2018-11-20T04:37:56.413Z,96978.56
2018-11-20T04:40:50.847Z,96973.31
2018-11-20T04:43:47.835Z,96985.82
2018-11-20T04:46:42.234Z,96980.72
2018-11-20T04:49:33.031Z,96982.74
2018-11-20T04:52:15.968Z,96986.88
2018-11-20T04:55:13.411Z,96982.09
2018-11-20T04:58:04.116Z,96982.32
2018-11-20T05:01:01.544Z,96984.88
2018-11-20T05:03:53.254Z,96990.95
2018-11-20T05:06:51.496Z,96997.13
2018-11-20T05:09:45.985Z,96994.57
2018-11-20T05:12:35.753Z,96991.33
2018-11-20T05:15:25.638Z,96993.70
2018-11-20T05:18:32.011Z,96997.09
2018-11-20T05:21:37.763Z,96986.31
2018-11-20T05:24:38.099Z,96984.41
2018-11-20T05:27:27.978Z,96989.81
2018-11-20T05:30:19.906Z,96992.75
2018-11-20T05:33:11.432Z,96984.38
2018-11-20T05:36:01.724Z,96993.59
2018-11-20T05:38:52.152Z,96980.38
2018-11-20T05:41:42.310Z,96985.92
2018-11-20T05:44:30.555Z,96979.55
2018-11-20T05:47:21.464Z,96976.55
2018-11-20T05:50:18.673Z,96983.73
2018-11-20T05:53:00.585Z,96981.61
2018-11-20T05:55:57.258Z,96978.27
2018-11-20T05:58:47.724Z,96979.62
2018-11-20T06:01:38.462Z,96972.88
2018-11-20T06:04:38.868Z,96970.08
2018-11-20T06:07:45.366Z,96969.63
2018-11-20T06:10:52.453Z,96970.21
2018-11-20T06:13:49.911Z,96971.28
2018-11-20T06:16:34.030Z,96971.62
2018-11-20T06:19:34.695Z,96966.12
2018-11-20T06:22:25.094Z,96968.30
2018-11-20T06:25:18.971Z,96973.02
2018-11-20T06:28:13.154Z,96962.80
2018-11-20T06:31:20.450Z,96965.63
2018-11-20T06:34:08.687Z,96968.82
2018-11-20T06:36:59.779Z,96963.94
2018-11-20T06:39:50.509Z,96966.63
2018-11-20T06:42:53.396Z,96975.08
2018-11-20T06:45:48.505Z,96977.68
2018-11-20T06:48:46.476Z,96976.33
2018-11-20T06:51:46.757Z,96962.27
2018-11-20T06:54:39.317Z,96966.94
2018-11-20T06:57:25.461Z,96960.98
2018-11-20T07:00:28.128Z,96959.94
2018-11-20T07:03:21.906Z,96958.57
2018-11-20T07:06:13.630Z,96948.05
2018-11-20T07:09:03.413Z,96947.52
2018-11-20T07:11:53.807Z,96952.52
2018-11-20T07:14:48.400Z,96950.42
2018-11-20T07:17:51.188Z,96947.80
2018-11-20T07:20:41.278Z,96948.76
2018-11-20T07:23:51.233Z,96947.56
2018-11-20T07:26:42.344Z,96952.03
2018-11-20T07:29:51.671Z,96948.23
2018-11-20T07:32:43.772Z,96949.89
2018-11-20T07:35:38.256Z,96948.88
2018-11-20T07:38:28.257Z,96952.41
2018-11-20T07:41:13.551Z,96941.52
2018-11-20T07:44:20.660Z,96931.73
2018-11-20T07:47:11.056Z,96942.72
2018-11-20T07:50:01.458Z,96938.28
2018-11-20T07:52:56.153Z,96953.28
2018-11-20T07:56:01.881Z,96956.69
2018-11-20T07:58:51.483Z,96947.21
2018-11-20T08:01:48.446Z,96944.80
2018-11-20T08:04:38.619Z,96938.97
2018-11-20T08:07:32.498Z,96936.13
2018-11-20T08:10:26.794Z,96950.94
2018-11-20T08:13:34.079Z,96940.57
2018-11-20T08:16:23.860Z,96946.03
2018-11-20T08:19:27.771Z,96937.30
2018-11-20T08:22:17.654Z,96939.84
2018-11-20T08:25:09.201Z,96942.03
2018-11-20T08:28:00.394Z,96942.00
2018-11-20T08:30:51.942Z,96944.47
2018-11-20T08:33:43.083Z,96943.69
2018-11-20T08:36:32.914Z,96945.69
2018-11-20T08:39:32.318Z,96946.38
2018-11-20T08:42:39.098Z,96950.75
2018-11-20T08:45:28.983Z,96962.94
2018-11-20T08:48:29.359Z,96960.35
2018-11-20T08:51:19.811Z,96963.56
2018-11-20T08:54:16.247Z,96969.47
2018-11-20T08:57:23.028Z,96972.85
2018-11-20T09:00:24.072Z,96977.34
2018-11-20T09:03:13.702Z,96974.30
2018-11-20T09:05:58.208Z,96975.20
2018-11-20T09:08:49.219Z,96969.98
2018-11-20T09:11:52.724Z,96975.89
2018-11-20T09:14:50.181Z,96974.30
2018-11-20T09:17:48.624Z,96968.78
2018-11-20T09:20:40.086Z,96973.04
2018-11-20T09:23:34.089Z,96968.98
2018-11-20T09:26:43.712Z,96966.34
2018-11-20T09:29:50.801Z,96963.38
2018-11-20T09:32:53.842Z,96977.39
2018-11-20T09:35:51.452Z,96969.22
2018-11-20T09:38:58.033Z,96972.04
2018-11-20T09:41:48.429Z,96973.73
2018-11-20T09:44:40.434Z,96974.11
2018-11-20T09:47:49.904Z,96973.67
2018-11-20T09:50:43.961Z,96973.41
2018-11-20T09:53:34.384Z,96974.28
2018-11-20T09:56:43.911Z,96964.58
2018-11-20T09:59:41.482Z,96963.73
2018-11-20T10:02:30.656Z,96955.11
2018-11-20T10:05:31.093Z,96952.57
2018-11-20T10:08:11.310Z,96932.72
2018-11-20T10:11:08.402Z,96924.31
2018-11-20T10:14:05.783Z,96921.87
2018-11-20T10:16:57.994Z,96920.48
2018-11-20T10:19:59.062Z,96913.33
2018-11-20T10:22:59.687Z,96915.23
2018-11-20T10:26:02.788Z,96916.61
2018-11-20T10:28:57.236Z,96922.88
2018-11-20T10:31:47.146Z,96928.91
2018-11-20T10:34:34.028Z,96932.49
2018-11-20T10:37:28.043Z,96921.80
2018-11-20T10:40:18.492Z,96924.13
2018-11-20T10:43:12.825Z,96929.16
2018-11-20T10:46:22.891Z,96923.38
2018-11-20T10:49:13.997Z,96934.00
2018-11-20T10:51:58.110Z,96939.82
2018-11-20T10:54:51.821Z,96938.47
2018-11-20T10:57:42.725Z,96936.75
2018-11-20T11:00:32.505Z,96933.66
2018-11-20T11:03:22.285Z,96927.11
2018-11-20T11:06:17.162Z,96923.80
2018-11-20T11:09:24.074Z,96920.55
2018-11-20T11:12:22.597Z,96921.30
2018-11-20T11:15:08.448Z,96923.73
2018-11-20T11:17:58.125Z,96920.70
2018-11-20T11:21:04.973Z,96904.71
2018-11-20T11:24:02.471Z,96903.94
2018-11-20T11:27:00.037Z,96901.55
2018-11-20T11:29:49.818Z,96896.38
2018-11-20T11:32:44.309Z,96890.93
2018-11-20T11:35:39.027Z,96895.45
2018-11-20T11:38:30.834Z,96900.27
2018-11-20T11:41:20.512Z,96895.19
2018-11-20T11:44:17.888Z,96898.73
2018-11-20T11:47:08.267Z,96902.11
2018-11-20T11:49:58.560Z,96904.44
2018-11-20T11:52:49.262Z,96909.35
2018-11-20T11:55:39.248Z,96912.61
2018-11-20T11:58:36.486Z,96912.75
2018-11-20T12:04:22.416Z,96922.36
2018-11-20T12:07:08.579Z,96931.23
2018-11-20T12:10:11.269Z,96927.56
2018-11-20T12:13:05.901Z,96919.95
2018-11-20T12:15:59.863Z,96919.35
2018-11-20T12:18:50.163Z,96916.38
2018-11-20T12:21:35.849Z,96919.48
2018-11-20T12:24:27.316Z,96918.55
2018-11-20T12:27:17.162Z,96922.09
2018-11-20T12:30:17.584Z,96914.73
2018-11-20T12:33:12.194Z,96911.84
2018-11-20T12:36:05.908Z,96908.53
2018-11-20T12:38:57.045Z,96903.55
2018-11-20T12:41:49.203Z,96900.61
2018-11-20T12:44:41.238Z,96897.25
2018-11-20T12:47:30.366Z,96891.80
2018-11-20T12:50:28.088Z,96886.39
2018-11-20T12:53:25.044Z,96884.42
2018-11-20T12:56:31.477Z,96885.13
2018-11-20T12:59:23.288Z,96881.95
2018-11-20T13:02:21.056Z,96876.77
2018-11-20T13:05:11.181Z,96879.48
2018-11-20T13:08:02.905Z,96884.88
2018-11-20T13:10:53.099Z,96879.21
2018-11-20T13:13:44.109Z,96881.80
2018-11-20T13:16:34.913Z,96879.62
2018-11-20T13:19:27.427Z,96880.26
2018-11-20T13:22:26.969Z,96884.50
2018-11-20T13:25:30.983Z,96889.34
2018-11-20T13:28:25.352Z,96891.92
2018-11-20T13:31:25.908Z,96893.80
2018-11-20T13:34:29.412Z,96903.81
2018-11-20T13:37:19.811Z,96914.72
2018-11-20T13:40:09.794Z,96917.48
2018-11-20T13:42:59.170Z,96914.47
2018-11-20T13:49:21.735Z,96927.09
2018-11-20T13:52:04.412Z,96937.06
2018-11-20T13:55:05.088Z,96941.84
2018-11-20T13:57:55.377Z,96942.66
2018-11-20T14:00:55.573Z,96949.77
2018-11-20T14:03:43.148Z,96947.05
2018-11-20T14:06:38.058Z,96953.79
2018-11-20T14:09:33.429Z,96954.61
2018-11-20T14:12:28.148Z,96956.95
2018-11-20T14:15:24.992Z,96955.95
2018-11-20T14:18:16.821Z,96966.85
2018-11-20T14:21:06.912Z,96961.81
2018-11-20T14:24:02.240Z,96962.89
2018-11-20T14:26:53.743Z,96973.41
2018-11-20T14:29:43.628Z,96972.72
2018-11-20T14:32:47.137Z,96978.25
2018-11-20T14:35:41.731Z,96976.33
2018-11-20T14:38:41.879Z,96977.94
2018-11-20T14:41:30.016Z,96980.95
2018-11-20T14:44:10.421Z,96983.28
2018-11-20T14:47:09.655Z,96980.98
2018-11-20T14:50:16.229Z,96986.95
2018-11-20T14:53:08.469Z,96988.01
2018-11-20T14:56:05.504Z,96981.95
2018-11-20T14:58:51.989Z,96984.15
2018-11-20T15:01:35.049Z,96981.60
2018-11-20T15:04:26.672Z,96979.48
2018-11-20T15:07:21.724Z,96983.36
2018-11-20T15:10:21.701Z,96987.53
2018-11-20T15:13:22.560Z,96993.83
2018-11-20T15:16:09.252Z,97002.55
2018-11-20T15:19:19.011Z,97006.00
2018-11-20T15:22:09.291Z,97011.05
2018-11-20T15:25:00.405Z,97015.48
2018-11-20T15:27:46.877Z,97015.58
2018-11-20T15:30:53.076Z,97015.51
2018-11-20T15:33:41.728Z,97012.17
2018-11-20T15:36:31.714Z,97013.33
2018-11-20T15:39:22.112Z,97007.54
2018-11-20T15:42:16.671Z,97014.23
2018-11-20T15:45:20.330Z,97024.16
2018-11-20T15:48:20.845Z,97026.63
2018-11-20T15:51:24.564Z,97029.27
2018-11-20T15:54:08.907Z,97028.11
2018-11-20T15:56:59.609Z,97033.27
2018-11-20T15:59:55.903Z,97037.72
2018-11-20T16:02:49.819Z,97041.77
2018-11-20T16:05:40.115Z,97052.93
2018-11-20T16:08:43.410Z,97052.41
2018-11-20T16:11:27.432Z,97048.51
2018-11-20T16:14:21.645Z,97048.98
2018-11-20T16:17:17.346Z,97048.78
2018-11-20T16:20:10.832Z,97046.47
2018-11-20T16:23:02.835Z,97044.00
2018-11-20T16:25:53.437Z,97047.48
2018-11-20T16:28:50.790Z,97056.41
2018-11-20T16:31:40.404Z,97060.89
2018-11-20T16:34:31.485Z,97057.75
2018-11-20T16:37:21.194Z,97055.72
2018-11-20T16:40:10.877Z,97060.84
2018-11-20T16:43:23.847Z,97062.98
2018-11-20T16:46:20.858Z,97074.81
2018-11-20T16:49:18.362Z,97083.86
2018-11-20T16:52:03.382Z,97089.41
2018-11-20T16:55:03.712Z,97088.44
2018-11-20T16:58:38.344Z,97094.80
2018-11-20T17:01:27.306Z,97105.22
2018-11-20T17:04:16.574Z,97114.48
2018-11-20T17:07:05.744Z,97117.92
2018-11-20T17:10:02.283Z,97129.23
2018-11-20T17:12:51.242Z,97124.08
2018-11-20T17:15:43.178Z,97131.12
2018-11-20T17:18:32.241Z,97142.44
2018-11-20T17:21:21.919Z,97146.83
2018-11-20T17:24:15.092Z,97148.16
2018-11-20T17:27:13.979Z,97146.23
2018-11-20T17:30:13.175Z,97152.09
2018-11-20T17:33:03.878Z,97155.64
2018-11-20T17:36:05.516Z,97154.63
2018-11-20T17:38:50.176Z,97163.75
2018-11-20T17:41:43.391Z,97163.42
2018-11-20T17:44:53.440Z,97161.62
2018-11-20T17:47:45.046Z,97161.08
2018-11-20T17:50:41.171Z,97167.65
2018-11-20T17:53:33.307Z,97164.31
2018-11-20T17:56:30.030Z,97162.72
2018-11-20T17:59:33.762Z,97164.33
2018-11-20T18:02:44.227Z,97171.16
2018-11-20T18:05:52.625Z,97178.44
2018-11-20T18:09:00.452Z,97175.63
2018-11-20T18:12:06.338Z,97173.73
2018-11-20T18:14:55.170Z,97175.88
2018-11-20T18:17:47.860Z,97174.44
2018-11-20T18:20:35.652Z,97179.00
2018-11-20T18:23:23.492Z,97183.28
2018-11-20T18:26:26.117Z,97195.30
2018-11-20T18:29:28.613Z,97194.86
2018-11-20T18:32:17.920Z,97182.88
2018-11-20T18:35:03.085Z,97175.98
2018-11-20T18:38:05.425Z,97185.50
2018-11-20T18:40:55.047Z,97189.61
2018-11-20T18:43:48.286Z,97194.38
2018-11-20T18:46:47.513Z,97207.44
2018-11-20T18:49:47.108Z,97208.08
2018-11-20T18:52:34.960Z,97211.42
2018-11-20T18:55:22.464Z,97213.73
2018-11-20T18:58:15.853Z,97212.98
2018-11-20T19:01:21.407Z,97219.74
2018-11-20T19:04:23.986Z,97227.38
2018-11-20T19:07:17.349Z,97223.03
2018-11-20T19:10:10.636Z,97229.74
2018-11-20T19:12:59.578Z,97228.89
2018-11-20T19:15:49.973Z,97226.67
2018-11-20T19:18:28.459Z,97229.20
2018-11-20T19:21:20.901Z,97228.09
2018-11-20T19:24:11.740Z,97230.23
2018-11-20T19:27:07.623Z,97235.38
2018-11-20T19:29:56.830Z,97239.08
2018-11-20T19:32:46.202Z,97234.83
2018-11-20T19:35:37.494Z,97238.22
2018-11-20T19:38:24.331Z,97233.39
2018-11-20T19:41:13.192Z,97243.61
2018-11-20T19:44:02.154Z,97249.98
2018-11-20T19:46:55.416Z,97253.04
2018-11-20T19:49:43.969Z,97254.48
2018-11-20T19:52:49.315Z,97258.77
2018-11-20T19:55:44.424Z,97265.38
2018-11-20T19:58:33.864Z,97264.59
2018-11-20T20:01:42.725Z,97264.94
2018-11-20T20:04:33.218Z,97270.41
2018-11-20T20:07:22.494Z,97274.28
2018-11-20T20:10:17.656Z,97284.72
2018-11-20T20:12:55.911Z,97286.89
2018-11-20T20:15:44.874Z,97297.89
2018-11-20T20:18:34.733Z,97300.92
2018-11-20T20:21:23.821Z,97305.52
2018-11-20T20:24:23.536Z,97308.67
2018-11-20T20:27:12.597Z,97312.14
2018-11-20T20:30:01.461Z,97312.23
2018-11-20T20:32:50.521Z,97308.83
2018-11-20T20:35:56.275Z,97308.20
2018-11-20T20:38:45.444Z,97310.91
2018-11-20T20:41:41.984Z,97317.08
2018-11-20T20:44:30.845Z,97316.27
2018-11-20T20:47:27.281Z,97315.86
2018-11-20T20:50:32.524Z,97326.66
2018-11-20T20:53:25.724Z,97323.02
2018-11-20T20:56:14.956Z,97320.23
2018-11-20T20:58:57.160Z,97325.13
2018-11-20T21:01:41.897Z,97327.75
2018-11-20T21:04:33.211Z,97335.44
2018-11-20T21:07:22.304Z,97332.33
2018-11-20T21:10:31.132Z,97340.45
2018-11-20T21:13:19.685Z,97344.09
2018-11-20T21:16:00.482Z,97347.22
2018-11-20T21:18:50.426Z,97351.03
2018-11-20T21:21:38.174Z,97347.66
2018-11-20T21:24:20.041Z,97349.86
2018-11-20T21:27:22.678Z,97350.17
2018-11-20T21:30:09.229Z,97354.23
2018-11-20T21:33:14.913Z,97355.34
2018-11-20T21:36:11.018Z,97366.90
2018-11-20T21:39:00.210Z,97363.47
2018-11-20T21:41:48.937Z,97368.88
2018-11-20T21:44:42.124Z,97369.73
2018-11-20T21:47:30.783Z,97363.50
2018-11-20T21:50:30.084Z,97375.30
2018-11-20T21:53:29.079Z,97379.94
2018-11-20T21:56:25.318Z,97376.39
2018-11-20T21:59:06.870Z,97381.39
2018-11-20T22:02:00.831Z,97380.59
2018-11-20T22:04:50.462Z,97385.52
2018-11-20T22:07:43.275Z,97394.44
2018-11-20T22:10:39.569Z,97398.23
2018-11-20T22:13:28.408Z,97394.61
2018-11-20T22:16:16.856Z,97393.01
2018-11-20T22:19:21.998Z,97396.08
2018-11-20T22:22:30.927Z,97396.94
2018-11-20T22:25:25.113Z,97391.02
2018-11-20T22:28:13.874Z,97392.81
2018-11-20T22:31:12.868Z,97402.25
2018-11-20T22:34:01.318Z,97409.48
2018-11-20T22:36:55.091Z,97413.34
2018-11-20T22:39:46.872Z,97406.91
2018-11-20T22:42:36.910Z,97405.78
2018-11-20T22:45:45.850Z,97408.58
2018-11-20T22:48:31.425Z,97410.11
2018-11-20T22:51:27.756Z,97415.98
2018-11-20T22:54:29.931Z,97422.23
2018-11-20T22:57:06.267Z,97423.40
2018-11-20T22:59:55.362Z,97422.98
2018-11-20T23:02:49.036Z,97432.96
2018-11-20T23:05:48.772Z,97434.84
2018-11-20T23:08:19.798Z,97440.82
2018-11-20T23:10:51.365Z,97448.34
2018-11-20T23:13:22.831Z,97446.02
2018-11-20T23:15:54.178Z,97441.16
2018-11-20T23:18:25.717Z,97435.39
2018-11-20T23:20:57.091Z,97431.98
2018-11-20T23:23:28.614Z,97436.11
2018-11-20T23:26:00.401Z,97436.91
2018-11-20T23:28:32.581Z,97434.36
2018-11-20T23:31:04.003Z,97440.88
2018-11-20T23:33:35.768Z,97439.45
2018-11-20T23:36:07.364Z,97439.45
2018-11-20T23:38:39.015Z,97436.91
2018-11-20T23:41:10.438Z,97440.03
2018-11-20T23:43:41.450Z,97436.88
2018-11-20T23:46:13.319Z,97433.37
2018-11-20T23:48:45.020Z,97446.11
2018-11-20T23:51:16.767Z,97443.41
2018-11-20T23:53:48.618Z,97445.48
2018-11-20T23:56:19.646Z,97442.73
2018-11-20T23:58:51.334Z,97438.78
